createdAt,value
2019-05-23T00:01:20.569Z,100.00
2019-05-23T00:03:59.290Z,100.00
2019-05-23T00:06:32.549Z,100.00
2019-05-23T00:09:06.749Z,100.00
2019-05-23T00:11:45.235Z,100.00
2019-05-23T00:14:34.139Z,100.00
2019-05-23T00:17:06.362Z,100.00
2019-05-23T00:19:40.119Z,100.00
2019-05-23T00:22:12.907Z,100.00
2019-05-23T00:24:46.084Z,100.00
2019-05-23T00:27:20.076Z,100.00
2019-05-23T00:29:52.015Z,100.00
2019-05-23T00:32:37.963Z,100.00
2019-05-23T00:35:12.457Z,100.00
2019-05-23T00:37:46.462Z,100.00
2019-05-23T00:40:19.718Z,100.00
2019-05-23T00:42:53.785Z,100.00
2019-05-23T00:45:27.017Z,100.00
2019-05-23T00:48:00.495Z,100.00
2019-05-23T00:50:34.835Z,100.00
2019-05-23T00:53:07.301Z,100.00
2019-05-23T00:55:40.161Z,100.00
2019-05-23T00:58:14.626Z,100.00
2019-05-23T01:00:48.440Z,100.00
2019-05-23T01:03:22.686Z,100.00
2019-05-23T01:05:55.507Z,100.00
2019-05-23T01:08:28.243Z,100.00
2019-05-23T01:11:00.975Z,100.00
2019-05-23T01:13:33.883Z,100.00
2019-05-23T01:16:07.181Z,100.00
2019-05-23T01:18:40.177Z,100.00
2019-05-23T01:21:30.648Z,100.00
2019-05-23T01:24:25.456Z,100.00
2019-05-23T01:26:58.488Z,100.00
2019-05-23T01:29:37.754Z,100.00
2019-05-23T01:32:13.795Z,100.00
2019-05-23T01:34:46.320Z,100.00
2019-05-23T01:37:20.199Z,100.00
2019-05-23T01:39:53.074Z,100.00
2019-05-23T01:42:26.018Z,100.00
2019-05-23T01:44:58.700Z,100.00
2019-05-23T01:47:30.629Z,100.00
2019-05-23T01:50:03.455Z,100.00
2019-05-23T01:52:36.421Z,100.00
2019-05-23T01:55:08.951Z,100.00
2019-05-23T01:57:41.331Z,100.00
2019-05-23T02:00:15.804Z,100.00
2019-05-23T02:02:48.733Z,100.00
2019-05-23T02:05:21.677Z,100.00
2019-05-23T02:07:54.637Z,100.00
2019-05-23T02:10:27.843Z,100.00
2019-05-23T02:13:01.125Z,100.00
2019-05-23T02:15:33.831Z,100.00
2019-05-23T02:18:06.595Z,100.00
2019-05-23T02:20:39.366Z,100.00
2019-05-23T02:23:13.711Z,100.00
2019-05-23T02:25:46.379Z,100.00
2019-05-23T02:28:19.167Z,100.00
2019-05-23T02:30:54.322Z,100.00
2019-05-23T02:33:28.709Z,100.00
2019-05-23T02:36:01.581Z,100.00
2019-05-23T02:38:47.562Z,100.00
2019-05-23T02:41:34.955Z,100.00
2019-05-23T02:44:14.424Z,100.00
2019-05-23T02:46:55.104Z,100.00
2019-05-23T02:49:30.850Z,100.00
2019-05-23T02:52:34.959Z,100.00
2019-05-23T02:55:17.596Z,100.00
2019-05-23T02:57:52.219Z,100.00
2019-05-23T03:00:54.894Z,100.00
2019-05-23T03:03:30.262Z,100.00
2019-05-23T03:06:04.890Z,100.00
2019-05-23T03:08:37.194Z,100.00
2019-05-23T03:11:35.193Z,100.00
2019-05-23T03:14:09.329Z,100.00
2019-05-23T03:16:45.775Z,100.00
2019-05-23T03:19:39.402Z,100.00
2019-05-23T03:22:52.240Z,100.00
2019-05-23T03:26:27.156Z,100.00
2019-05-23T03:29:00.081Z,100.00
2019-05-23T03:31:39.589Z,100.00
2019-05-23T03:34:14.339Z,100.00
2019-05-23T03:36:46.591Z,100.00
2019-05-23T03:39:18.534Z,100.00
2019-05-23T03:41:50.768Z,100.00
2019-05-23T03:44:23.508Z,100.00
2019-05-23T03:46:57.764Z,100.00
2019-05-23T03:49:31.148Z,100.00
2019-05-23T03:52:04.981Z,100.00
2019-05-23T03:54:37.202Z,100.00
2019-05-23T03:57:11.509Z,100.00
2019-05-23T03:59:45.097Z,100.00
2019-05-23T04:02:19.310Z,100.00
2019-05-23T04:04:52.091Z,100.00
2019-05-23T04:07:24.890Z,100.00
2019-05-23T04:09:56.827Z,100.00
2019-05-23T04:12:29.316Z,100.00
2019-05-23T04:15:01.402Z,100.00
2019-05-23T04:17:33.392Z,100.00
2019-05-23T04:20:07.032Z,100.00
2019-05-23T04:22:38.978Z,100.00
2019-05-23T04:25:11.820Z,100.00
2019-05-23T04:27:44.790Z,100.00
2019-05-23T04:30:17.955Z,100.00
2019-05-23T04:32:50.438Z,100.00
2019-05-23T04:35:22.558Z,100.00
2019-05-23T04:37:55.111Z,100.00
2019-05-23T04:40:27.380Z,100.00
2019-05-23T04:42:59.343Z,100.00
2019-05-23T04:45:31.501Z,100.00
2019-05-23T04:48:05.048Z,100.00
2019-05-23T04:50:37.621Z,100.00
2019-05-23T04:53:09.871Z,100.00
2019-05-23T04:55:43.786Z,100.00
2019-05-23T04:58:15.997Z,100.00
2019-05-23T05:00:48.188Z,100.00
2019-05-23T05:03:20.794Z,100.00
2019-05-23T05:05:53.520Z,100.00
2019-05-23T05:08:25.870Z,100.00
2019-05-23T05:10:58.240Z,100.00
2019-05-23T05:13:30.938Z,100.00
2019-05-23T05:16:03.038Z,100.00
2019-05-23T05:18:35.232Z,100.00
2019-05-23T05:21:08.736Z,100.00
2019-05-23T05:23:40.839Z,100.00
2019-05-23T05:26:22.583Z,100.00
2019-05-23T05:28:54.670Z,100.00
2019-05-23T05:31:26.927Z,100.00
2019-05-23T05:33:59.321Z,100.00
2019-05-23T05:36:31.602Z,100.00
2019-05-23T05:39:03.971Z,100.00
2019-05-23T05:41:37.013Z,100.00
2019-05-23T05:44:11.613Z,100.00
2019-05-23T05:46:42.968Z,100.00
2019-05-23T05:49:15.821Z,100.00
2019-05-23T05:51:47.903Z,100.00
2019-05-23T05:54:20.514Z,100.00
2019-05-23T05:56:52.474Z,100.00
2019-05-23T05:59:24.457Z,100.00
2019-05-23T06:01:56.729Z,100.00
2019-05-23T06:04:28.842Z,100.00
2019-05-23T06:07:26.563Z,100.00
2019-05-23T06:10:00.234Z,100.00
2019-05-23T06:12:32.398Z,100.00
2019-05-23T06:15:04.879Z,100.00
2019-05-23T06:17:37.211Z,100.00
2019-05-23T06:20:10.975Z,100.00
2019-05-23T06:22:44.443Z,100.00
2019-05-23T06:25:16.621Z,100.00
2019-05-23T06:27:48.964Z,100.00
2019-05-23T06:30:23.830Z,100.00
2019-05-23T06:32:56.340Z,100.00
2019-05-23T06:35:28.414Z,100.00
2019-05-23T06:38:01.413Z,100.00
2019-05-23T06:40:35.041Z,100.00
2019-05-23T06:43:07.818Z,100.00
2019-05-23T06:45:42.147Z,100.00
2019-05-23T06:48:15.919Z,100.00
2019-05-23T06:50:48.428Z,100.00
2019-05-23T06:53:20.958Z,100.00
2019-05-23T06:55:53.169Z,100.00
2019-05-23T06:58:25.642Z,100.00
2019-05-23T07:00:57.902Z,100.00
2019-05-23T07:03:41.916Z,100.00
2019-05-23T07:06:04.765Z,100.00
2019-05-23T07:08:36.766Z,100.00
2019-05-23T07:11:08.713Z,99.40
2019-05-23T07:13:42.608Z,99.15
2019-05-23T07:16:14.682Z,97.61
2019-05-23T07:18:46.633Z,97.87
2019-05-23T07:21:18.597Z,97.13
2019-05-23T07:23:51.079Z,97.35
2019-05-23T07:26:23.410Z,97.44
2019-05-23T07:28:55.748Z,96.30
2019-05-23T07:31:28.074Z,95.78
2019-05-23T07:34:02.367Z,95.22
2019-05-23T07:36:34.339Z,94.73
2019-05-23T07:39:11.641Z,94.84
2019-05-23T07:41:43.353Z,94.58
2019-05-23T07:44:15.720Z,94.47
2019-05-23T07:46:47.888Z,94.20
2019-05-23T07:49:20.691Z,92.62
2019-05-23T07:51:52.716Z,93.18
2019-05-23T07:54:38.982Z,93.49
2019-05-23T07:57:13.871Z,93.75
2019-05-23T07:59:46.421Z,92.86
2019-05-23T08:02:27.226Z,91.90
2019-05-23T08:04:59.460Z,92.29
2019-05-23T08:07:32.921Z,93.39
2019-05-23T08:10:06.623Z,93.84
2019-05-23T08:12:39.003Z,92.58
2019-05-23T08:15:11.368Z,91.49
2019-05-23T08:17:43.467Z,91.95
2019-05-23T08:20:17.099Z,91.79
2019-05-23T08:22:49.573Z,91.69
2019-05-23T08:25:21.529Z,89.97
2019-05-23T08:27:53.766Z,88.64
2019-05-23T08:30:25.862Z,87.92
2019-05-23T08:32:58.102Z,88.12
2019-05-23T08:35:30.377Z,87.64
2019-05-23T08:38:03.226Z,87.69
2019-05-23T08:40:36.547Z,86.51
2019-05-23T08:43:08.881Z,86.07
2019-05-23T08:45:41.113Z,86.22
2019-05-23T08:48:13.147Z,85.88
2019-05-23T08:50:45.323Z,86.18
2019-05-23T08:53:17.315Z,86.07
2019-05-23T08:55:49.967Z,85.26
2019-05-23T08:58:22.099Z,83.14
2019-05-23T09:00:55.049Z,81.93
2019-05-23T09:03:27.109Z,82.65
2019-05-23T09:05:59.859Z,81.37
2019-05-23T09:08:34.972Z,80.86
2019-05-23T09:11:07.255Z,82.38
2019-05-23T09:13:39.320Z,82.59
2019-05-23T09:16:12.232Z,82.69
2019-05-23T09:18:44.471Z,82.41
2019-05-23T09:21:16.821Z,82.92
2019-05-23T09:23:49.022Z,84.04
2019-05-23T09:26:21.080Z,84.42
2019-05-23T09:28:53.321Z,85.07
2019-05-23T09:31:25.378Z,85.14
2019-05-23T09:33:57.293Z,84.81
2019-05-23T09:36:30.173Z,84.48
2019-05-23T09:39:02.468Z,85.11
2019-05-23T09:41:35.257Z,84.03
2019-05-23T09:44:07.842Z,84.02
2019-05-23T09:46:40.279Z,83.25
2019-05-23T09:49:12.710Z,82.92
2019-05-23T09:51:45.658Z,82.47
2019-05-23T09:54:18.989Z,82.80
2019-05-23T09:56:51.847Z,82.70
2019-05-23T09:59:25.912Z,83.53
2019-05-23T10:01:59.355Z,83.78
2019-05-23T10:04:31.473Z,83.39
2019-05-23T10:07:03.645Z,83.65
2019-05-23T10:09:40.361Z,84.22
2019-05-23T10:12:12.391Z,84.00
2019-05-23T10:14:44.443Z,85.07
2019-05-23T10:17:16.476Z,86.27
2019-05-23T10:19:48.527Z,85.61
2019-05-23T10:22:21.013Z,83.76
2019-05-23T10:24:53.098Z,84.41
2019-05-23T10:27:25.093Z,83.58
2019-05-23T10:29:57.168Z,83.55
2019-05-23T10:32:29.266Z,84.31
2019-05-23T10:35:01.405Z,84.43
2019-05-23T10:37:33.357Z,85.30
2019-05-23T10:40:07.319Z,85.50
2019-05-23T10:42:40.143Z,85.00
2019-05-23T10:45:12.105Z,83.27
2019-05-23T10:47:44.075Z,81.45
2019-05-23T10:50:17.510Z,81.38
2019-05-23T10:52:49.954Z,80.60
2019-05-23T10:55:21.883Z,80.65
2019-05-23T10:57:53.896Z,80.96
2019-05-23T11:00:29.095Z,80.86
2019-05-23T11:03:01.416Z,80.86
2019-05-23T11:05:33.616Z,78.90
2019-05-23T11:08:06.821Z,78.90
2019-05-23T11:10:38.944Z,79.34
2019-05-23T11:13:11.074Z,80.23
2019-05-23T11:15:44.017Z,80.84
2019-05-23T11:18:16.475Z,81.08
2019-05-23T11:20:48.714Z,81.62
2019-05-23T11:23:33.195Z,82.37
2019-05-23T11:26:05.668Z,82.96
2019-05-23T11:28:38.093Z,83.59
2019-05-23T11:31:10.851Z,83.29
2019-05-23T11:33:42.910Z,83.65
2019-05-23T11:36:31.751Z,83.40
2019-05-23T11:38:49.915Z,83.39
2019-05-23T11:41:22.069Z,83.23
2019-05-23T11:43:54.031Z,82.41
2019-05-23T11:46:30.157Z,82.00
2019-05-23T11:49:03.936Z,82.38
2019-05-23T11:51:36.863Z,82.25
2019-05-23T11:54:10.494Z,82.52
2019-05-23T11:56:43.048Z,81.21
2019-05-23T11:59:15.252Z,80.24
2019-05-23T12:02:09.150Z,80.69
2019-05-23T12:04:42.983Z,81.21
2019-05-23T12:07:21.933Z,82.40
2019-05-23T12:09:54.136Z,81.79
2019-05-23T12:12:26.426Z,81.71
2019-05-23T12:15:00.232Z,82.15
2019-05-23T12:17:33.762Z,83.12
2019-05-23T12:20:07.129Z,83.67
2019-05-23T12:22:39.323Z,84.09
2019-05-23T12:25:21.869Z,83.07
2019-05-23T12:27:46.585Z,82.43
2019-05-23T12:30:20.303Z,81.89
2019-05-23T12:32:55.128Z,81.53
2019-05-23T12:35:27.345Z,81.11
2019-05-23T12:38:02.430Z,82.87
2019-05-23T12:40:33.949Z,80.40
2019-05-23T12:43:06.088Z,80.42
2019-05-23T12:45:38.048Z,80.88
2019-05-23T12:48:17.983Z,81.54
2019-05-23T12:50:53.743Z,81.71
2019-05-23T12:53:24.494Z,81.83
2019-05-23T12:55:56.511Z,83.02
2019-05-23T12:58:30.335Z,83.94
2019-05-23T13:01:02.993Z,84.45
2019-05-23T13:03:35.340Z,84.71
2019-05-23T13:06:07.542Z,85.21
2019-05-23T13:08:39.763Z,85.05
2019-05-23T13:11:12.034Z,84.94
2019-05-23T13:13:44.125Z,85.01
2019-05-23T13:16:16.189Z,85.13
2019-05-23T13:18:48.179Z,84.86
2019-05-23T13:21:20.637Z,85.14
2019-05-23T13:23:52.639Z,83.67
2019-05-23T13:26:24.672Z,84.45
2019-05-23T13:28:56.721Z,83.37
2019-05-23T13:31:28.878Z,84.18
2019-05-23T13:34:01.496Z,83.17
2019-05-23T13:36:33.687Z,82.24
2019-05-23T13:39:10.595Z,83.33
2019-05-23T13:41:42.725Z,84.21
2019-05-23T13:44:32.074Z,83.79
2019-05-23T13:46:49.415Z,82.62
2019-05-23T13:49:22.165Z,83.29
2019-05-23T13:51:54.252Z,83.20
2019-05-23T13:54:26.681Z,83.89
2019-05-23T13:56:59.649Z,84.59
2019-05-23T13:59:31.905Z,84.77
2019-05-23T14:02:06.071Z,84.01
2019-05-23T14:04:38.266Z,83.40
2019-05-23T14:07:12.272Z,83.40
2019-05-23T14:09:44.462Z,84.69
2019-05-23T14:12:21.343Z,85.73
2019-05-23T14:14:50.831Z,86.54
2019-05-23T14:17:51.132Z,87.37
2019-05-23T14:20:24.391Z,87.85
2019-05-23T14:23:13.788Z,87.88
2019-05-23T14:25:47.018Z,88.16
2019-05-23T14:28:19.038Z,88.35
2019-05-23T14:31:12.953Z,88.78
2019-05-23T14:33:52.394Z,89.44
2019-05-23T14:36:43.255Z,89.69
2019-05-23T14:39:34.259Z,89.53
2019-05-23T14:42:13.382Z,89.52
2019-05-23T14:44:45.452Z,89.25
2019-05-23T14:47:41.901Z,88.86
2019-05-23T14:50:33.250Z,88.46
2019-05-23T14:53:06.416Z,87.62
2019-05-23T14:55:38.480Z,87.38
2019-05-23T14:58:11.309Z,87.32
2019-05-23T15:00:45.276Z,87.36
2019-05-23T15:03:17.893Z,87.75
2019-05-23T15:05:50.231Z,88.18
2019-05-23T15:08:22.285Z,87.94
2019-05-23T15:10:54.600Z,87.97
2019-05-23T15:13:26.729Z,87.86
2019-05-23T15:15:58.828Z,88.00
2019-05-23T15:18:31.240Z,87.78
2019-05-23T15:21:03.488Z,87.83
2019-05-23T15:23:35.555Z,87.81
2019-05-23T15:26:22.476Z,87.88
2019-05-23T15:28:41.426Z,87.89
2019-05-23T15:31:13.575Z,88.13
2019-05-23T15:33:45.809Z,88.33
2019-05-23T15:36:18.285Z,88.75
2019-05-23T15:39:06.319Z,88.92
2019-05-23T15:41:24.133Z,89.03
2019-05-23T15:43:56.235Z,89.52
2019-05-23T15:46:28.499Z,89.74
2019-05-23T15:49:01.211Z,89.79
2019-05-23T15:51:39.757Z,89.93
2019-05-23T15:54:19.551Z,90.07
2019-05-23T15:57:07.532Z,90.47
2019-05-23T15:59:48.164Z,90.80
2019-05-23T16:02:26.884Z,91.18
2019-05-23T16:05:00.785Z,91.39
2019-05-23T16:07:33.075Z,91.54
2019-05-23T16:10:05.841Z,91.31
2019-05-23T16:12:38.073Z,91.22
2019-05-23T16:15:11.345Z,91.70
2019-05-23T16:17:43.354Z,92.33
2019-05-23T16:20:15.781Z,92.66
2019-05-23T16:22:47.772Z,92.85
2019-05-23T16:25:20.336Z,93.32
2019-05-23T16:27:52.746Z,93.70
2019-05-23T16:30:25.560Z,93.75
2019-05-23T16:32:57.644Z,94.06
2019-05-23T16:35:29.676Z,94.30
2019-05-23T16:38:01.689Z,94.27
2019-05-23T16:40:33.703Z,94.35
2019-05-23T16:43:05.792Z,94.66
2019-05-23T16:45:37.820Z,94.94
2019-05-23T16:48:10.520Z,94.93
2019-05-23T16:50:42.601Z,94.89
2019-05-23T16:53:14.653Z,94.85
2019-05-23T16:55:56.414Z,95.05
2019-05-23T16:58:42.066Z,95.03
2019-05-23T17:01:54.887Z,95.27
2019-05-23T17:04:22.327Z,95.52
2019-05-23T17:06:59.883Z,95.74
2019-05-23T17:10:09.027Z,96.09
2019-05-23T17:13:07.498Z,96.19
2019-05-23T17:16:01.288Z,96.51
2019-05-23T17:18:58.198Z,96.85
2019-05-23T17:21:44.286Z,97.02
2019-05-23T17:24:33.876Z,97.50
2019-05-23T17:27:35.255Z,97.84
2019-05-23T17:30:24.681Z,97.97
2019-05-23T17:32:57.453Z,98.09
2019-05-23T17:35:29.641Z,98.21
2019-05-23T17:38:01.732Z,98.50
2019-05-23T17:40:34.417Z,98.68
2019-05-23T17:43:06.499Z,98.82
2019-05-23T17:45:38.520Z,98.90
2019-05-23T17:48:10.503Z,98.98
2019-05-23T17:50:42.994Z,99.00
2019-05-23T17:53:14.986Z,98.97
2019-05-23T17:55:47.803Z,98.92
2019-05-23T17:58:20.609Z,99.04
2019-05-23T18:00:53.252Z,99.02
2019-05-23T18:03:25.522Z,98.95
2019-05-23T18:05:58.072Z,98.89
2019-05-23T18:08:37.807Z,98.75
2019-05-23T18:11:10.652Z,98.57
2019-05-23T18:13:43.425Z,98.29
2019-05-23T18:16:16.465Z,98.08
2019-05-23T18:18:48.689Z,98.08
2019-05-23T18:21:22.597Z,98.03
2019-05-23T18:23:55.852Z,97.88
2019-05-23T18:26:27.847Z,97.78
2019-05-23T18:29:00.686Z,97.45
2019-05-23T18:31:34.527Z,97.27
2019-05-23T18:34:08.780Z,97.09
2019-05-23T18:36:41.468Z,96.84
2019-05-23T18:39:16.843Z,96.83
2019-05-23T18:41:48.841Z,96.64
2019-05-23T18:44:22.190Z,96.55
2019-05-23T18:47:12.073Z,96.57
2019-05-23T18:49:44.729Z,96.51
2019-05-23T18:52:16.703Z,96.33
2019-05-23T18:54:48.824Z,96.19
2019-05-23T18:57:21.742Z,96.14
2019-05-23T18:59:54.198Z,96.09
2019-05-23T19:02:27.122Z,95.96
2019-05-23T19:04:59.907Z,95.89
2019-05-23T19:07:49.602Z,95.86
2019-05-23T19:10:22.291Z,96.01
2019-05-23T19:12:54.404Z,96.12
2019-05-23T19:15:26.880Z,96.45
2019-05-23T19:17:59.097Z,96.41
2019-05-23T19:20:54.486Z,96.52
2019-05-23T19:23:23.218Z,96.65
2019-05-23T19:25:56.086Z,96.71
2019-05-23T19:28:28.100Z,96.71
2019-05-23T19:31:00.336Z,96.84
2019-05-23T19:33:33.299Z,96.76
2019-05-23T19:36:06.391Z,96.75
2019-05-23T19:38:56.150Z,96.77
2019-05-23T19:41:37.532Z,96.84
2019-05-23T19:44:02.613Z,96.79
2019-05-23T19:46:52.364Z,96.76
2019-05-23T19:49:27.199Z,96.75
2019-05-23T19:51:58.699Z,96.39
2019-05-23T19:54:48.616Z,96.26
2019-05-23T19:57:38.546Z,95.96
2019-05-23T20:00:14.468Z,95.86
2019-05-23T20:02:51.211Z,95.77
2019-05-23T20:05:28.158Z,95.29
2019-05-23T20:08:00.277Z,95.07
2019-05-23T20:10:33.012Z,94.97
2019-05-23T20:13:05.423Z,95.10
2019-05-23T20:15:37.556Z,95.24
2019-05-23T20:18:11.408Z,95.07
2019-05-23T20:20:43.773Z,95.09
2019-05-23T20:23:33.299Z,95.06
2019-05-23T20:26:08.247Z,95.03
2019-05-23T20:28:58.019Z,94.92
2019-05-23T20:31:30.076Z,94.84
2019-05-23T20:34:02.203Z,94.69
2019-05-23T20:36:36.018Z,94.81
2019-05-23T20:39:27.441Z,94.75
2019-05-23T20:42:17.207Z,94.95
2019-05-23T20:45:07.499Z,95.07
2019-05-23T20:47:39.715Z,95.08
2019-05-23T20:50:12.169Z,94.77
2019-05-23T20:52:44.395Z,94.67
2019-05-23T20:55:16.447Z,94.59
2019-05-23T20:57:48.568Z,94.68
2019-05-23T21:01:00.358Z,94.94
2019-05-23T21:03:52.221Z,94.81
2019-05-23T21:06:42.074Z,94.88
2019-05-23T21:09:15.955Z,94.81
2019-05-23T21:11:48.221Z,95.04
2019-05-23T21:14:20.985Z,95.26
2019-05-23T21:16:54.808Z,95.30
2019-05-23T21:19:44.586Z,95.54
2019-05-23T21:22:16.754Z,95.60
2019-05-23T21:25:08.059Z,95.46
2019-05-23T21:27:40.294Z,95.04
2019-05-23T21:30:12.510Z,95.14
2019-05-23T21:32:44.591Z,95.50
2019-05-23T21:35:16.669Z,95.65
2019-05-23T21:38:06.589Z,95.57
2019-05-23T21:40:47.423Z,95.34
2019-05-23T21:43:20.189Z,95.40
2019-05-23T21:46:27.802Z,95.21
2019-05-23T21:49:35.613Z,94.91
2019-05-23T21:52:08.529Z,94.88
2019-05-23T21:54:40.583Z,94.96
2019-05-23T21:57:30.389Z,95.00
2019-05-23T22:00:22.341Z,95.02
2019-05-23T22:02:54.336Z,95.11
2019-05-23T22:05:44.102Z,95.26
2019-05-23T22:08:33.599Z,95.15
2019-05-23T22:11:23.390Z,95.52
2019-05-23T22:14:13.380Z,95.84
2019-05-23T22:16:45.371Z,96.01
2019-05-23T22:19:18.860Z,96.10
2019-05-23T22:21:51.058Z,96.21
2019-05-23T22:24:23.279Z,96.17
2019-05-23T22:26:55.329Z,96.28
2019-05-23T22:29:45.098Z,96.69
2019-05-23T22:32:18.789Z,96.54
2019-05-23T22:35:08.443Z,96.29
2019-05-23T22:37:42.556Z,96.29
2019-05-23T22:40:15.119Z,96.13
2019-05-23T22:42:47.152Z,96.00
2019-05-23T22:45:37.967Z,95.82
2019-05-23T22:48:27.428Z,95.71
2019-05-23T22:50:59.394Z,95.87
2019-05-23T22:53:31.365Z,95.79
2019-05-23T22:56:03.327Z,95.67
2019-05-23T22:58:35.394Z,95.70
2019-05-23T23:01:07.573Z,95.75
2019-05-23T23:03:39.570Z,95.56
2019-05-23T23:06:29.479Z,95.59
2019-05-23T23:09:37.334Z,95.97
2019-05-23T23:12:27.104Z,96.36
2019-05-23T23:14:59.094Z,97.31
2019-05-23T23:17:49.020Z,97.90
2019-05-23T23:20:39.422Z,98.20
2019-05-23T23:23:29.227Z,98.33
2019-05-23T23:26:01.210Z,98.67
2019-05-23T23:28:33.563Z,98.90
2019-05-23T23:31:05.726Z,99.20
2019-05-23T23:33:37.669Z,99.37
2019-05-23T23:36:10.468Z,99.42
2019-05-23T23:39:00.312Z,99.48
2019-05-23T23:41:50.097Z,99.65
2019-05-23T23:44:38.666Z,99.74
2019-05-23T23:47:28.448Z,99.85
2019-05-23T23:50:18.560Z,99.87
2019-05-23T23:53:08.200Z,99.87
2019-05-23T23:55:58.374Z,99.88
2019-05-23T23:58:29.815Z,99.91
